sensor_id;sensor_type;location;lat;lon;timestamp;P1;durP1;ratioP1;P2;durP2;ratioP2
1382;SDS011;685;47.196;11.880;2022-08-18T00:02:08;6.00;;;5.40;;
1382;SDS011;685;47.196;11.880;2022-08-18T00:04:37;5.70;;;5.10;;
1382;SDS011;685;47.196;11.880;2022-08-18T00:07:05;5.03;;;4.50;;
1382;SDS011;685;47.196;11.880;2022-08-18T00:09:34;7.13;;;5.53;;
1382;SDS011;685;47.196;11.880;2022-08-18T00:12:04;6.50;;;4.70;;
1382;SDS011;685;47.196;11.880;2022-08-18T00:14:34;6.13;;;5.53;;
1382;SDS011;685;47.196;11.880;2022-08-18T00:17:01;4.73;;;4.20;;
1382;SDS011;685;47.196;11.880;2022-08-18T00:19:28;5.47;;;4.93;;
1382;SDS011;685;47.196;11.880;2022-08-18T00:21:55;7.07;;;4.23;;
1382;SDS011;685;47.196;11.880;2022-08-18T00:24:23;5.27;;;4.00;;
1382;SDS011;685;47.196;11.880;2022-08-18T00:26:50;11.23;;;4.40;;
1382;SDS011;685;47.196;11.880;2022-08-18T00:29:18;5.20;;;4.70;;
1382;SDS011;685;47.196;11.880;2022-08-18T00:31:47;6.17;;;4.90;;
1382;SDS011;685;47.196;11.880;2022-08-18T00:34:14;6.27;;;4.80;;
1382;SDS011;685;47.196;11.880;2022-08-18T00:36:41;7.03;;;4.57;;
1382;SDS011;685;47.196;11.880;2022-08-18T00:39:08;6.20;;;4.60;;
1382;SDS011;685;47.196;11.880;2022-08-18T00:41:35;4.80;;;4.10;;
1382;SDS011;685;47.196;11.880;2022-08-18T00:44:02;4.43;;;3.90;;
1382;SDS011;685;47.196;11.880;2022-08-18T00:46:31;6.10;;;5.23;;
1382;SDS011;685;47.196;11.880;2022-08-18T00:49:01;5.47;;;4.47;;
1382;SDS011;685;47.196;11.880;2022-08-18T00:51:28;5.80;;;4.50;;
1382;SDS011;685;47.196;11.880;2022-08-18T00:54:04;4.77;;;4.13;;
1382;SDS011;685;47.196;11.880;2022-08-18T00:56:37;7.50;;;4.00;;
1382;SDS011;685;47.196;11.880;2022-08-18T00:59:10;6.33;;;5.03;;
1382;SDS011;685;47.196;11.880;2022-08-18T01:01:40;11.17;;;4.40;;
1382;SDS011;685;47.196;11.880;2022-08-18T01:04:13;7.50;;;3.93;;
1382;SDS011;685;47.196;11.880;2022-08-18T01:06:44;5.13;;;4.07;;
1382;SDS011;685;47.196;11.880;2022-08-18T01:09:17;6.17;;;4.40;;
1382;SDS011;685;47.196;11.880;2022-08-18T01:11:44;4.90;;;4.10;;
1382;SDS011;685;47.196;11.880;2022-08-18T01:14:12;5.23;;;3.87;;
1382;SDS011;685;47.196;11.880;2022-08-18T01:16:42;6.13;;;5.53;;
1382;SDS011;685;47.196;11.880;2022-08-18T01:19:28;9.50;;;5.10;;
1382;SDS011;685;47.196;11.880;2022-08-18T01:22:14;6.97;;;4.53;;
1382;SDS011;685;47.196;11.880;2022-08-18T01:24:47;6.20;;;4.43;;
1382;SDS011;685;47.196;11.880;2022-08-18T01:27:34;4.90;;;3.83;;
1382;SDS011;685;47.196;11.880;2022-08-18T01:30:04;4.93;;;3.83;;
1382;SDS011;685;47.196;11.880;2022-08-18T01:32:34;5.33;;;3.70;;
1382;SDS011;685;47.196;11.880;2022-08-18T01:35:02;7.17;;;4.60;;
1382;SDS011;685;47.196;11.880;2022-08-18T01:37:33;6.10;;;5.37;;
1382;SDS011;685;47.196;11.880;2022-08-18T01:40:03;9.40;;;5.43;;
1382;SDS011;685;47.196;11.880;2022-08-18T01:42:32;4.80;;;3.83;;
1382;SDS011;685;47.196;11.880;2022-08-18T01:44:59;9.30;;;4.47;;
1382;SDS011;685;47.196;11.880;2022-08-18T01:47:28;7.00;;;4.10;;
1382;SDS011;685;47.196;11.880;2022-08-18T01:49:58;4.80;;;4.20;;
1382;SDS011;685;47.196;11.880;2022-08-18T01:52:26;4.83;;;4.03;;
1382;SDS011;685;47.196;11.880;2022-08-18T01:54:54;5.40;;;5.00;;
1382;SDS011;685;47.196;11.880;2022-08-18T01:57:23;6.30;;;5.37;;
1382;SDS011;685;47.196;11.880;2022-08-18T01:59:51;5.07;;;4.57;;
1382;SDS011;685;47.196;11.880;2022-08-18T02:02:20;6.70;;;5.80;;
1382;SDS011;685;47.196;11.880;2022-08-18T02:04:50;6.73;;;5.77;;
1382;SDS011;685;47.196;11.880;2022-08-18T02:07:19;8.07;;;4.90;;
1382;SDS011;685;47.196;11.880;2022-08-18T02:09:46;5.23;;;4.73;;
1382;SDS011;685;47.196;11.880;2022-08-18T02:12:14;6.53;;;5.50;;
1382;SDS011;685;47.196;11.880;2022-08-18T02:14:42;5.73;;;5.10;;
1382;SDS011;685;47.196;11.880;2022-08-18T02:17:10;5.40;;;4.90;;
1382;SDS011;685;47.196;11.880;2022-08-18T02:19:39;6.00;;;5.00;;
1382;SDS011;685;47.196;11.880;2022-08-18T02:22:09;6.87;;;5.67;;
1382;SDS011;685;47.196;11.880;2022-08-18T02:24:38;5.00;;;4.50;;
1382;SDS011;685;47.196;11.880;2022-08-18T02:27:05;5.37;;;4.80;;
1382;SDS011;685;47.196;11.880;2022-08-18T02:29:33;8.37;;;5.40;;
1382;SDS011;685;47.196;11.880;2022-08-18T02:32:02;6.13;;;5.10;;
1382;SDS011;685;47.196;11.880;2022-08-18T02:34:30;5.33;;;4.83;;
1382;SDS011;685;47.196;11.880;2022-08-18T02:36:57;6.90;;;5.27;;
1382;SDS011;685;47.196;11.880;2022-08-18T02:39:25;9.03;;;6.30;;
1382;SDS011;685;47.196;11.880;2022-08-18T02:41:52;6.20;;;4.80;;
1382;SDS011;685;47.196;11.880;2022-08-18T02:44:19;6.17;;;5.23;;
1382;SDS011;685;47.196;11.880;2022-08-18T02:46:50;5.53;;;4.97;;
1382;SDS011;685;47.196;11.880;2022-08-18T02:49:19;5.47;;;4.97;;
1382;SDS011;685;47.196;11.880;2022-08-18T02:51:46;6.37;;;5.70;;
1382;SDS011;685;47.196;11.880;2022-08-18T02:54:15;6.77;;;5.73;;
1382;SDS011;685;47.196;11.880;2022-08-18T02:56:44;5.40;;;4.70;;
1382;SDS011;685;47.196;11.880;2022-08-18T02:59:12;7.80;;;5.93;;
1382;SDS011;685;47.196;11.880;2022-08-18T03:01:42;6.93;;;5.33;;
1382;SDS011;685;47.196;11.880;2022-08-18T03:04:11;5.33;;;4.57;;
1382;SDS011;685;47.196;11.880;2022-08-18T03:06:41;4.90;;;4.40;;
1382;SDS011;685;47.196;11.880;2022-08-18T03:09:10;5.17;;;4.50;;
1382;SDS011;685;47.196;11.880;2022-08-18T03:11:38;6.10;;;5.50;;
1382;SDS011;685;47.196;11.880;2022-08-18T03:14:05;7.37;;;5.10;;
1382;SDS011;685;47.196;11.880;2022-08-18T03:16:32;6.57;;;5.43;;
1382;SDS011;685;47.196;11.880;2022-08-18T03:19:00;6.80;;;5.30;;
1382;SDS011;685;47.196;11.880;2022-08-18T03:21:28;7.53;;;4.70;;
1382;SDS011;685;47.196;11.880;2022-08-18T03:24:00;4.97;;;4.47;;
1382;SDS011;685;47.196;11.880;2022-08-18T03:26:28;7.20;;;5.47;;
1382;SDS011;685;47.196;11.880;2022-08-18T03:28:56;9.00;;;5.00;;
1382;SDS011;685;47.196;11.880;2022-08-18T03:31:25;5.33;;;4.53;;
1382;SDS011;685;47.196;11.880;2022-08-18T03:33:55;5.50;;;4.90;;
1382;SDS011;685;47.196;11.880;2022-08-18T03:36:24;6.80;;;4.00;;
1382;SDS011;685;47.196;11.880;2022-08-18T03:38:53;6.27;;;4.40;;
1382;SDS011;685;47.196;11.880;2022-08-18T03:41:24;4.97;;;4.47;;
1382;SDS011;685;47.196;11.880;2022-08-18T03:43:52;5.90;;;5.10;;
1382;SDS011;685;47.196;11.880;2022-08-18T03:46:20;6.00;;;5.40;;
1382;SDS011;685;47.196;11.880;2022-08-18T03:48:49;7.60;;;5.33;;
1382;SDS011;685;47.196;11.880;2022-08-18T03:51:18;5.07;;;4.67;;
1382;SDS011;685;47.196;11.880;2022-08-18T03:53:49;8.20;;;5.53;;
1382;SDS011;685;47.196;11.880;2022-08-18T03:56:20;7.30;;;5.30;;
1382;SDS011;685;47.196;11.880;2022-08-18T03:58:52;6.33;;;4.17;;
1382;SDS011;685;47.196;11.880;2022-08-18T04:01:21;6.43;;;4.53;;
1382;SDS011;685;47.196;11.880;2022-08-18T04:03:50;5.67;;;5.17;;
1382;SDS011;685;47.196;11.880;2022-08-18T04:06:21;8.27;;;4.80;;
1382;SDS011;685;47.196;11.880;2022-08-18T04:08:50;5.90;;;5.03;;
1382;SDS011;685;47.196;11.880;2022-08-18T04:11:17;8.30;;;5.30;;
1382;SDS011;685;47.196;11.880;2022-08-18T04:13:46;5.90;;;5.00;;
1382;SDS011;685;47.196;11.880;2022-08-18T04:16:13;5.30;;;4.80;;
1382;SDS011;685;47.196;11.880;2022-08-18T04:18:40;5.70;;;4.50;;
1382;SDS011;685;47.196;11.880;2022-08-18T04:21:08;4.90;;;4.27;;
1382;SDS011;685;47.196;11.880;2022-08-18T04:23:37;6.77;;;4.50;;
1382;SDS011;685;47.196;11.880;2022-08-18T04:26:06;4.73;;;4.33;;
1382;SDS011;685;47.196;11.880;2022-08-18T04:28:34;5.23;;;4.10;;
1382;SDS011;685;47.196;11.880;2022-08-18T04:31:06;5.70;;;4.93;;
1382;SDS011;685;47.196;11.880;2022-08-18T04:33:33;6.33;;;5.13;;
1382;SDS011;685;47.196;11.880;2022-08-18T04:36:05;5.23;;;4.43;;
1382;SDS011;685;47.196;11.880;2022-08-18T04:38:35;6.80;;;4.33;;
1382;SDS011;685;47.196;11.880;2022-08-18T04:41:02;7.23;;;4.90;;
1382;SDS011;685;47.196;11.880;2022-08-18T04:43:29;6.73;;;5.70;;
1382;SDS011;685;47.196;11.880;2022-08-18T04:45:56;5.97;;;4.23;;
1382;SDS011;685;47.196;11.880;2022-08-18T04:48:28;6.77;;;5.20;;
1382;SDS011;685;47.196;11.880;2022-08-18T04:51:01;7.27;;;5.67;;
1382;SDS011;685;47.196;11.880;2022-08-18T04:53:30;6.23;;;5.37;;
1382;SDS011;685;47.196;11.880;2022-08-18T04:56:18;7.70;;;4.87;;
1382;SDS011;685;47.196;11.880;2022-08-18T04:58:51;8.70;;;5.10;;
1382;SDS011;685;47.196;11.880;2022-08-18T05:01:20;6.70;;;5.03;;
1382;SDS011;685;47.196;11.880;2022-08-18T05:03:56;7.87;;;6.57;;
1382;SDS011;685;47.196;11.880;2022-08-18T05:06:25;7.67;;;5.20;;
1382;SDS011;685;47.196;11.880;2022-08-18T05:08:54;6.97;;;6.27;;
1382;SDS011;685;47.196;11.880;2022-08-18T05:11:22;9.20;;;5.97;;
1382;SDS011;685;47.196;11.880;2022-08-18T05:13:50;8.17;;;5.30;;
1382;SDS011;685;47.196;11.880;2022-08-18T05:16:19;7.50;;;6.30;;
1382;SDS011;685;47.196;11.880;2022-08-18T05:18:46;7.63;;;5.87;;
1382;SDS011;685;47.196;11.880;2022-08-18T05:21:15;6.17;;;5.57;;
1382;SDS011;685;47.196;11.880;2022-08-18T05:23:42;6.13;;;5.40;;
1382;SDS011;685;47.196;11.880;2022-08-18T05:26:10;6.33;;;5.73;;
1382;SDS011;685;47.196;11.880;2022-08-18T05:28:38;8.77;;;5.30;;
1382;SDS011;685;47.196;11.880;2022-08-18T05:31:06;7.17;;;5.30;;
1382;SDS011;685;47.196;11.880;2022-08-18T05:33:35;6.83;;;4.97;;
1382;SDS011;685;47.196;11.880;2022-08-18T05:36:04;5.73;;;5.13;;
1382;SDS011;685;47.196;11.880;2022-08-18T05:38:40;7.30;;;5.10;;
1382;SDS011;685;47.196;11.880;2022-08-18T05:41:19;6.73;;;5.20;;
1382;SDS011;685;47.196;11.880;2022-08-18T05:43:50;7.07;;;4.83;;
1382;SDS011;685;47.196;11.880;2022-08-18T05:46:17;6.13;;;5.50;;
1382;SDS011;685;47.196;11.880;2022-08-18T05:48:47;7.50;;;5.70;;
1382;SDS011;685;47.196;11.880;2022-08-18T05:51:15;12.60;;;6.03;;
1382;SDS011;685;47.196;11.880;2022-08-18T05:53:48;11.37;;;6.00;;
1382;SDS011;685;47.196;11.880;2022-08-18T05:56:33;8.73;;;6.20;;
1382;SDS011;685;47.196;11.880;2022-08-18T05:59:11;8.00;;;6.90;;
1382;SDS011;685;47.196;11.880;2022-08-18T06:01:41;7.90;;;6.13;;
1382;SDS011;685;47.196;11.880;2022-08-18T06:04:19;6.30;;;5.70;;
1382;SDS011;685;47.196;11.880;2022-08-18T06:06:51;7.63;;;6.70;;
1382;SDS011;685;47.196;11.880;2022-08-18T06:09:25;9.23;;;5.93;;
1382;SDS011;685;47.196;11.880;2022-08-18T06:11:59;6.50;;;5.50;;
1382;SDS011;685;47.196;11.880;2022-08-18T06:14:35;15.40;;;6.60;;
1382;SDS011;685;47.196;11.880;2022-08-18T06:17:06;17.30;;;6.47;;
1382;SDS011;685;47.196;11.880;2022-08-18T06:19:42;8.60;;;5.40;;
1382;SDS011;685;47.196;11.880;2022-08-18T06:22:18;10.33;;;5.40;;
1382;SDS011;685;47.196;11.880;2022-08-18T06:24:54;6.30;;;5.70;;
1382;SDS011;685;47.196;11.880;2022-08-18T06:27:28;7.23;;;5.20;;
1382;SDS011;685;47.196;11.880;2022-08-18T06:30:06;6.07;;;5.47;;
1382;SDS011;685;47.196;11.880;2022-08-18T06:32:41;6.30;;;5.70;;
1382;SDS011;685;47.196;11.880;2022-08-18T06:35:23;6.13;;;5.53;;
1382;SDS011;685;47.196;11.880;2022-08-18T06:38:00;7.03;;;5.33;;
1382;SDS011;685;47.196;11.880;2022-08-18T06:40:51;6.50;;;5.83;;
1382;SDS011;685;47.196;11.880;2022-08-18T06:43:27;11.20;;;6.50;;
1382;SDS011;685;47.196;11.880;2022-08-18T06:45:59;6.00;;;5.00;;
1382;SDS011;685;47.196;11.880;2022-08-18T06:48:30;6.73;;;5.90;;
1382;SDS011;685;47.196;11.880;2022-08-18T06:51:03;8.50;;;6.57;;
1382;SDS011;685;47.196;11.880;2022-08-18T06:53:49;6.00;;;5.50;;
1382;SDS011;685;47.196;11.880;2022-08-18T06:56:25;7.13;;;5.83;;
1382;SDS011;685;47.196;11.880;2022-08-18T06:59:12;10.03;;;6.40;;
1382;SDS011;685;47.196;11.880;2022-08-18T07:01:41;9.37;;;5.30;;
1382;SDS011;685;47.196;11.880;2022-08-18T07:04:11;7.40;;;6.10;;
1382;SDS011;685;47.196;11.880;2022-08-18T07:06:58;8.90;;;6.70;;
1382;SDS011;685;47.196;11.880;2022-08-18T07:09:36;7.50;;;6.40;;
1382;SDS011;685;47.196;11.880;2022-08-18T07:12:05;7.27;;;6.57;;
1382;SDS011;685;47.196;11.880;2022-08-18T07:14:40;7.60;;;6.33;;
1382;SDS011;685;47.196;11.880;2022-08-18T07:17:09;7.97;;;6.50;;
1382;SDS011;685;47.196;11.880;2022-08-18T07:19:38;6.50;;;5.90;;
1382;SDS011;685;47.196;11.880;2022-08-18T07:22:07;8.40;;;5.70;;
1382;SDS011;685;47.196;11.880;2022-08-18T07:24:37;9.30;;;6.87;;
1382;SDS011;685;47.196;11.880;2022-08-18T07:27:09;6.20;;;5.60;;
1382;SDS011;685;47.196;11.880;2022-08-18T07:29:38;10.17;;;5.77;;
1382;SDS011;685;47.196;11.880;2022-08-18T07:32:08;11.27;;;7.80;;
1382;SDS011;685;47.196;11.880;2022-08-18T07:34:40;7.20;;;6.50;;
1382;SDS011;685;47.196;11.880;2022-08-18T07:37:13;6.97;;;6.27;;
1382;SDS011;685;47.196;11.880;2022-08-18T07:39:45;7.60;;;6.80;;
1382;SDS011;685;47.196;11.880;2022-08-18T07:42:18;7.57;;;6.27;;
1382;SDS011;685;47.196;11.880;2022-08-18T07:44:55;7.67;;;6.83;;
1382;SDS011;685;47.196;11.880;2022-08-18T07:47:28;10.13;;;6.77;;
1382;SDS011;685;47.196;11.880;2022-08-18T07:50:01;7.80;;;7.00;;
1382;SDS011;685;47.196;11.880;2022-08-18T07:52:30;7.87;;;6.50;;
1382;SDS011;685;47.196;11.880;2022-08-18T07:55:03;7.33;;;6.63;;
1382;SDS011;685;47.196;11.880;2022-08-18T07:57:38;6.80;;;6.20;;
1382;SDS011;685;47.196;11.880;2022-08-18T08:00:13;8.20;;;6.47;;
1382;SDS011;685;47.196;11.880;2022-08-18T08:02:47;9.30;;;6.70;;
1382;SDS011;685;47.196;11.880;2022-08-18T08:05:20;7.53;;;6.83;;
1382;SDS011;685;47.196;11.880;2022-08-18T08:08:04;14.30;;;7.50;;
1382;SDS011;685;47.196;11.880;2022-08-18T08:10:40;8.27;;;6.33;;
1382;SDS011;685;47.196;11.880;2022-08-18T08:13:17;7.17;;;6.43;;
1382;SDS011;685;47.196;11.880;2022-08-18T08:15:51;9.03;;;8.17;;
1382;SDS011;685;47.196;11.880;2022-08-18T08:18:30;7.03;;;6.43;;
1382;SDS011;685;47.196;11.880;2022-08-18T08:21:07;7.20;;;6.17;;
1382;SDS011;685;47.196;11.880;2022-08-18T08:23:39;8.50;;;6.07;;
1382;SDS011;685;47.196;11.880;2022-08-18T08:26:19;9.20;;;5.80;;
1382;SDS011;685;47.196;11.880;2022-08-18T08:28:55;7.93;;;6.87;;
1382;SDS011;685;47.196;11.880;2022-08-18T08:31:31;7.37;;;5.87;;
1382;SDS011;685;47.196;11.880;2022-08-18T08:34:11;7.43;;;6.73;;
1382;SDS011;685;47.196;11.880;2022-08-18T08:36:42;7.63;;;6.40;;
1382;SDS011;685;47.196;11.880;2022-08-18T08:39:14;6.97;;;5.80;;
1382;SDS011;685;47.196;11.880;2022-08-18T08:41:46;8.40;;;6.70;;
1382;SDS011;685;47.196;11.880;2022-08-18T08:44:21;9.23;;;7.00;;
1382;SDS011;685;47.196;11.880;2022-08-18T08:46:54;7.40;;;6.70;;
1382;SDS011;685;47.196;11.880;2022-08-18T08:49:27;7.00;;;6.30;;
1382;SDS011;685;47.196;11.880;2022-08-18T08:51:59;7.17;;;6.47;;
1382;SDS011;685;47.196;11.880;2022-08-18T08:54:32;7.33;;;6.40;;
1382;SDS011;685;47.196;11.880;2022-08-18T08:57:09;10.80;;;6.83;;
1382;SDS011;685;47.196;11.880;2022-08-18T08:59:40;8.87;;;7.40;;
1382;SDS011;685;47.196;11.880;2022-08-18T09:02:28;9.30;;;6.47;;
1382;SDS011;685;47.196;11.880;2022-08-18T09:05:07;7.40;;;6.70;;
1382;SDS011;685;47.196;11.880;2022-08-18T09:07:47;12.03;;;7.83;;
1382;SDS011;685;47.196;11.880;2022-08-18T09:10:38;9.10;;;8.17;;
1382;SDS011;685;47.196;11.880;2022-08-18T09:13:28;8.80;;;7.40;;
1382;SDS011;685;47.196;11.880;2022-08-18T09:16:14;7.60;;;6.87;;
1382;SDS011;685;47.196;11.880;2022-08-18T09:18:50;13.03;;;7.50;;
1382;SDS011;685;47.196;11.880;2022-08-18T09:21:36;25.80;;;9.50;;
1382;SDS011;685;47.196;11.880;2022-08-18T09:24:17;14.27;;;8.10;;
1382;SDS011;685;47.196;11.880;2022-08-18T09:26:50;10.07;;;7.70;;
1382;SDS011;685;47.196;11.880;2022-08-18T09:29:21;8.53;;;7.27;;
1382;SDS011;685;47.196;11.880;2022-08-18T09:34:56;8.27;;;7.47;;
1382;SDS011;685;47.196;11.880;2022-08-18T09:37:36;13.20;;;7.70;;
1382;SDS011;685;47.196;11.880;2022-08-18T09:40:13;15.20;;;8.00;;
1382;SDS011;685;47.196;11.880;2022-08-18T09:43:06;17.20;;;9.00;;
1382;SDS011;685;47.196;11.880;2022-08-18T09:45:40;9.03;;;7.60;;
1382;SDS011;685;47.196;11.880;2022-08-18T09:51:18;10.20;;;7.83;;
1382;SDS011;685;47.196;11.880;2022-08-18T09:54:07;7.83;;;7.20;;
1382;SDS011;685;47.196;11.880;2022-08-18T09:56:57;10.20;;;8.17;;
1382;SDS011;685;47.196;11.880;2022-08-18T10:06:02;8.27;;;7.57;;
1382;SDS011;685;47.196;11.880;2022-08-18T10:08:48;9.63;;;8.60;;
1382;SDS011;685;47.196;11.880;2022-08-18T10:17:31;10.37;;;8.30;;
1382;SDS011;685;47.196;11.880;2022-08-18T10:20:13;9.83;;;7.30;;
1382;SDS011;685;47.196;11.880;2022-08-18T10:22:53;10.60;;;7.30;;
1382;SDS011;685;47.196;11.880;2022-08-18T10:25:33;7.60;;;4.57;;
1382;SDS011;685;47.196;11.880;2022-08-18T10:28:04;3.73;;;2.13;;
1382;SDS011;685;47.196;11.880;2022-08-18T10:36:38;2.90;;;1.00;;
1382;SDS011;685;47.196;11.880;2022-08-18T10:39:12;3.07;;;1.27;;
1382;SDS011;685;47.196;11.880;2022-08-18T10:44:40;5.33;;;4.20;;
1382;SDS011;685;47.196;11.880;2022-08-18T10:47:18;8.10;;;7.30;;
1382;SDS011;685;47.196;11.880;2022-08-18T10:49:48;10.07;;;6.17;;
1382;SDS011;685;47.196;11.880;2022-08-18T10:52:31;22.37;;;7.07;;
1382;SDS011;685;47.196;11.880;2022-08-18T11:01:11;5.20;;;1.47;;
1382;SDS011;685;47.196;11.880;2022-08-18T11:04:00;8.43;;;2.00;;
1382;SDS011;685;47.196;11.880;2022-08-18T11:06:35;5.03;;;1.93;;
1382;SDS011;685;47.196;11.880;2022-08-18T11:09:06;3.70;;;1.10;;
1382;SDS011;685;47.196;11.880;2022-08-18T11:11:36;2.07;;;1.30;;
1382;SDS011;685;47.196;11.880;2022-08-18T11:14:14;2.90;;;2.10;;
1382;SDS011;685;47.196;11.880;2022-08-18T11:16:52;7.03;;;4.70;;
1382;SDS011;685;47.196;11.880;2022-08-18T11:19:26;7.50;;;2.83;;
1382;SDS011;685;47.196;11.880;2022-08-18T11:21:54;6.13;;;4.70;;
1382;SDS011;685;47.196;11.880;2022-08-18T11:24:23;9.90;;;4.03;;
1382;SDS011;685;47.196;11.880;2022-08-18T11:26:52;2.20;;;1.90;;
1382;SDS011;685;47.196;11.880;2022-08-18T11:29:29;2.50;;;1.50;;
1382;SDS011;685;47.196;11.880;2022-08-18T11:31:59;2.10;;;1.17;;
1382;SDS011;685;47.196;11.880;2022-08-18T11:34:34;6.27;;;2.10;;
1382;SDS011;685;47.196;11.880;2022-08-18T11:37:04;8.80;;;2.50;;
1382;SDS011;685;47.196;11.880;2022-08-18T11:39:40;2.67;;;1.30;;
1382;SDS011;685;47.196;11.880;2022-08-18T11:42:08;8.93;;;2.10;;
1382;SDS011;685;47.196;11.880;2022-08-18T11:44:37;5.10;;;1.60;;
1382;SDS011;685;47.196;11.880;2022-08-18T11:47:09;6.27;;;2.27;;
1382;SDS011;685;47.196;11.880;2022-08-18T11:49:44;5.90;;;1.60;;
1382;SDS011;685;47.196;11.880;2022-08-18T11:52:18;6.30;;;1.27;;
1382;SDS011;685;47.196;11.880;2022-08-18T11:54:49;3.00;;;1.77;;
1382;SDS011;685;47.196;11.880;2022-08-18T11:57:26;6.90;;;1.97;;
1382;SDS011;685;47.196;11.880;2022-08-18T12:03:05;6.10;;;3.33;;
1382;SDS011;685;47.196;11.880;2022-08-18T12:05:43;6.80;;;4.60;;
1382;SDS011;685;47.196;11.880;2022-08-18T12:08:17;8.00;;;6.20;;
1382;SDS011;685;47.196;11.880;2022-08-18T12:10:47;10.63;;;6.30;;
1382;SDS011;685;47.196;11.880;2022-08-18T12:13:23;11.57;;;7.30;;
1382;SDS011;685;47.196;11.880;2022-08-18T12:18:34;9.90;;;7.03;;
1382;SDS011;685;47.196;11.880;2022-08-18T12:21:01;8.87;;;6.30;;
1382;SDS011;685;47.196;11.880;2022-08-18T12:23:29;6.70;;;4.47;;
1382;SDS011;685;47.196;11.880;2022-08-18T12:25:57;4.20;;;2.50;;
1382;SDS011;685;47.196;11.880;2022-08-18T12:28:25;6.30;;;2.63;;
1382;SDS011;685;47.196;11.880;2022-08-18T12:30:52;9.67;;;5.10;;
1382;SDS011;685;47.196;11.880;2022-08-18T12:33:19;6.03;;;4.40;;
1382;SDS011;685;47.196;11.880;2022-08-18T12:35:47;11.77;;;2.67;;
1382;SDS011;685;47.196;11.880;2022-08-18T12:38:14;7.73;;;2.23;;
1382;SDS011;685;47.196;11.880;2022-08-18T12:40:42;4.57;;;1.80;;
1382;SDS011;685;47.196;11.880;2022-08-18T12:43:09;7.10;;;2.03;;
1382;SDS011;685;47.196;11.880;2022-08-18T12:45:36;42.23;;;8.00;;
1382;SDS011;685;47.196;11.880;2022-08-18T12:48:04;5.33;;;2.83;;
1382;SDS011;685;47.196;11.880;2022-08-18T12:50:32;6.00;;;2.80;;
1382;SDS011;685;47.196;11.880;2022-08-18T12:53:00;5.17;;;2.50;;
1382;SDS011;685;47.196;11.880;2022-08-18T12:55:27;5.90;;;1.83;;
1382;SDS011;685;47.196;11.880;2022-08-18T12:57:59;8.07;;;2.27;;
1382;SDS011;685;47.196;11.880;2022-08-18T13:00:28;12.57;;;3.23;;
1382;SDS011;685;47.196;11.880;2022-08-18T13:02:55;4.87;;;2.47;;
1382;SDS011;685;47.196;11.880;2022-08-18T13:05:23;8.37;;;2.77;;
1382;SDS011;685;47.196;11.880;2022-08-18T13:07:50;7.30;;;2.20;;
1382;SDS011;685;47.196;11.880;2022-08-18T13:10:19;4.57;;;2.77;;
1382;SDS011;685;47.196;11.880;2022-08-18T13:12:46;7.00;;;3.30;;
1382;SDS011;685;47.196;11.880;2022-08-18T13:15:13;62.67;;;8.63;;
1382;SDS011;685;47.196;11.880;2022-08-18T13:17:40;9.60;;;3.43;;
1382;SDS011;685;47.196;11.880;2022-08-18T13:20:08;7.90;;;3.20;;
1382;SDS011;685;47.196;11.880;2022-08-18T13:22:37;3.50;;;2.70;;
1382;SDS011;685;47.196;11.880;2022-08-18T13:25:06;6.27;;;2.60;;
1382;SDS011;685;47.196;11.880;2022-08-18T13:27:36;9.00;;;2.90;;
1382;SDS011;685;47.196;11.880;2022-08-18T13:30:04;8.70;;;3.60;;
1382;SDS011;685;47.196;11.880;2022-08-18T13:32:34;11.70;;;4.07;;
1382;SDS011;685;47.196;11.880;2022-08-18T13:35:01;11.83;;;3.50;;
1382;SDS011;685;47.196;11.880;2022-08-18T13:37:28;6.60;;;2.40;;
1382;SDS011;685;47.196;11.880;2022-08-18T13:39:56;5.77;;;3.07;;
1382;SDS011;685;47.196;11.880;2022-08-18T13:42:23;9.60;;;3.67;;
1382;SDS011;685;47.196;11.880;2022-08-18T13:44:53;28.07;;;4.87;;
1382;SDS011;685;47.196;11.880;2022-08-18T13:47:21;73.60;;;10.70;;
1382;SDS011;685;47.196;11.880;2022-08-18T13:49:48;33.37;;;5.50;;
1382;SDS011;685;47.196;11.880;2022-08-18T13:52:15;61.27;;;10.57;;
1382;SDS011;685;47.196;11.880;2022-08-18T13:54:43;6.93;;;2.47;;
1382;SDS011;685;47.196;11.880;2022-08-18T13:57:10;32.27;;;5.80;;
1382;SDS011;685;47.196;11.880;2022-08-18T13:59:38;27.70;;;4.47;;
1382;SDS011;685;47.196;11.880;2022-08-18T14:02:08;7.10;;;3.07;;
1382;SDS011;685;47.196;11.880;2022-08-18T14:04:35;6.50;;;3.07;;
1382;SDS011;685;47.196;11.880;2022-08-18T14:07:03;14.00;;;3.40;;
1382;SDS011;685;47.196;11.880;2022-08-18T14:09:33;9.60;;;3.00;;
1382;SDS011;685;47.196;11.880;2022-08-18T14:12:01;5.70;;;3.00;;
1382;SDS011;685;47.196;11.880;2022-08-18T14:14:29;4.80;;;2.20;;
1382;SDS011;685;47.196;11.880;2022-08-18T14:16:57;3.10;;;1.97;;
1382;SDS011;685;47.196;11.880;2022-08-18T14:19:26;3.10;;;2.40;;
1382;SDS011;685;47.196;11.880;2022-08-18T14:22:10;3.63;;;2.00;;
1382;SDS011;685;47.196;11.880;2022-08-18T14:24:54;3.83;;;1.93;;
1382;SDS011;685;47.196;11.880;2022-08-18T14:27:41;8.37;;;1.83;;
1382;SDS011;685;47.196;11.880;2022-08-18T14:30:09;4.60;;;2.10;;
1382;SDS011;685;47.196;11.880;2022-08-18T14:32:38;7.80;;;2.20;;
1382;SDS011;685;47.196;11.880;2022-08-18T14:35:09;7.63;;;2.00;;
1382;SDS011;685;47.196;11.880;2022-08-18T14:37:38;2.63;;;1.67;;
1382;SDS011;685;47.196;11.880;2022-08-18T14:40:05;10.30;;;2.23;;
1382;SDS011;685;47.196;11.880;2022-08-18T14:42:34;6.33;;;2.33;;
1382;SDS011;685;47.196;11.880;2022-08-18T14:45:01;7.23;;;2.00;;
1382;SDS011;685;47.196;11.880;2022-08-18T14:47:28;2.03;;;1.30;;
1382;SDS011;685;47.196;11.880;2022-08-18T14:49:57;3.30;;;1.70;;
1382;SDS011;685;47.196;11.880;2022-08-18T14:52:26;3.13;;;1.67;;
1382;SDS011;685;47.196;11.880;2022-08-18T14:54:53;2.70;;;1.90;;
1382;SDS011;685;47.196;11.880;2022-08-18T14:57:20;4.57;;;2.20;;
1382;SDS011;685;47.196;11.880;2022-08-18T14:59:47;3.77;;;1.83;;
1382;SDS011;685;47.196;11.880;2022-08-18T15:02:14;2.40;;;1.53;;
1382;SDS011;685;47.196;11.880;2022-08-18T15:04:41;3.90;;;1.60;;
1382;SDS011;685;47.196;11.880;2022-08-18T15:07:09;2.73;;;1.50;;
1382;SDS011;685;47.196;11.880;2022-08-18T15:09:37;2.50;;;1.60;;
1382;SDS011;685;47.196;11.880;2022-08-18T15:12:04;4.50;;;1.40;;
1382;SDS011;685;47.196;11.880;2022-08-18T15:14:32;1.67;;;1.10;;
1382;SDS011;685;47.196;11.880;2022-08-18T15:17:00;3.10;;;1.57;;
1382;SDS011;685;47.196;11.880;2022-08-18T15:19:30;2.20;;;1.00;;
1382;SDS011;685;47.196;11.880;2022-08-18T15:21:59;2.13;;;1.37;;
1382;SDS011;685;47.196;11.880;2022-08-18T15:24:44;4.00;;;1.53;;
1382;SDS011;685;47.196;11.880;2022-08-18T15:27:29;3.00;;;1.60;;
1382;SDS011;685;47.196;11.880;2022-08-18T15:29:57;3.37;;;1.80;;
1382;SDS011;685;47.196;11.880;2022-08-18T15:32:29;2.73;;;1.97;;
1382;SDS011;685;47.196;11.880;2022-08-18T15:34:56;3.00;;;1.80;;
1382;SDS011;685;47.196;11.880;2022-08-18T15:37:23;2.60;;;1.77;;
1382;SDS011;685;47.196;11.880;2022-08-18T15:39:59;2.77;;;1.87;;
1382;SDS011;685;47.196;11.880;2022-08-18T15:42:35;2.90;;;1.50;;
1382;SDS011;685;47.196;11.880;2022-08-18T15:45:02;3.10;;;1.70;;
1382;SDS011;685;47.196;11.880;2022-08-18T15:47:32;4.33;;;2.40;;
1382;SDS011;685;47.196;11.880;2022-08-18T15:49:59;4.43;;;2.17;;
1382;SDS011;685;47.196;11.880;2022-08-18T15:52:26;4.60;;;1.90;;
1382;SDS011;685;47.196;11.880;2022-08-18T15:54:53;15.10;;;2.13;;
1382;SDS011;685;47.196;11.880;2022-08-18T15:57:22;15.97;;;2.80;;
1382;SDS011;685;47.196;11.880;2022-08-18T15:59:49;5.97;;;2.50;;
1382;SDS011;685;47.196;11.880;2022-08-18T16:02:17;3.90;;;2.40;;
1382;SDS011;685;47.196;11.880;2022-08-18T16:04:44;5.50;;;2.37;;
1382;SDS011;685;47.196;11.880;2022-08-18T16:07:11;7.43;;;3.27;;
1382;SDS011;685;47.196;11.880;2022-08-18T16:09:40;3.40;;;2.10;;
1382;SDS011;685;47.196;11.880;2022-08-18T16:12:07;4.03;;;2.20;;
1382;SDS011;685;47.196;11.880;2022-08-18T16:14:37;2.80;;;1.93;;
1382;SDS011;685;47.196;11.880;2022-08-18T16:17:04;2.90;;;2.17;;
1382;SDS011;685;47.196;11.880;2022-08-18T16:19:31;3.37;;;2.13;;